createdAt,value
2022-12-15T00:02:17.980Z,69.74
2022-12-15T00:05:03.173Z,69.42
2022-12-15T00:07:48.019Z,69.80
2022-12-15T00:10:33.304Z,69.80
2022-12-15T00:13:18.279Z,69.45
2022-12-15T00:16:05.745Z,69.63
2022-12-15T00:18:51.095Z,69.47
2022-12-15T00:21:36.440Z,69.50
2022-12-15T00:24:21.330Z,69.43
2022-12-15T00:27:06.358Z,69.45
2022-12-15T00:29:51.260Z,69.80
2022-12-15T00:32:37.936Z,69.66
2022-12-15T00:35:23.837Z,69.66
2022-12-15T00:38:08.861Z,69.83
2022-12-15T00:40:36.352Z,69.01
2022-12-15T00:43:04.057Z,68.97
2022-12-15T00:45:45.688Z,68.95
2022-12-15T00:48:14.515Z,69.73
2022-12-15T00:50:53.310Z,69.44
2022-12-15T00:53:38.910Z,69.35
2022-12-15T00:56:24.223Z,69.18
2022-12-15T00:59:09.119Z,69.63
2022-12-15T01:01:54.622Z,69.54
2022-12-15T01:04:41.743Z,68.75
2022-12-15T01:07:26.826Z,68.89
2022-12-15T01:10:11.628Z,68.99
2022-12-15T01:12:56.713Z,69.02
2022-12-15T01:15:41.553Z,69.42
2022-12-15T01:18:26.529Z,69.57
2022-12-15T01:20:59.739Z,69.54
2022-12-15T01:23:27.574Z,69.13
2022-12-15T01:25:55.807Z,69.23
2022-12-15T01:28:23.501Z,69.29
2022-12-15T01:30:51.566Z,68.77
2022-12-15T01:33:20.213Z,69.52
2022-12-15T01:35:57.801Z,69.33
2022-12-15T01:38:25.638Z,69.37
2022-12-15T01:40:53.790Z,68.82
2022-12-15T01:43:24.379Z,69.31
2022-12-15T01:46:05.138Z,69.35
2022-12-15T01:48:45.219Z,69.18
2022-12-15T01:51:23.282Z,68.97
2022-12-15T01:53:56.665Z,68.98
2022-12-15T01:56:27.096Z,69.65
2022-12-15T01:58:57.390Z,69.28
2022-12-15T02:01:26.042Z,68.94
2022-12-15T02:03:53.833Z,69.69
2022-12-15T02:06:22.821Z,69.19
2022-12-15T02:08:53.374Z,69.08
2022-12-15T02:11:48.496Z,68.98
2022-12-15T02:14:22.046Z,69.18
2022-12-15T02:17:07.553Z,69.43
2022-12-15T02:20:15.685Z,69.45
2022-12-15T02:23:02.016Z,69.54
2022-12-15T02:25:50.492Z,70.25
2022-12-15T02:28:32.720Z,70.38
2022-12-15T02:31:22.405Z,70.95
2022-12-15T02:33:55.672Z,71.03
2022-12-15T02:36:29.304Z,70.79
2022-12-15T02:38:56.843Z,70.57
2022-12-15T02:41:36.205Z,70.74
2022-12-15T02:44:10.757Z,70.66
2022-12-15T02:46:56.409Z,71.51
2022-12-15T02:49:35.411Z,71.32
2022-12-15T02:52:19.875Z,70.82
2022-12-15T02:54:58.922Z,70.54
2022-12-15T02:57:35.186Z,71.08
2022-12-15T03:00:06.424Z,70.48
2022-12-15T03:02:39.246Z,70.56
2022-12-15T03:05:07.553Z,70.29
2022-12-15T03:07:35.138Z,70.77
2022-12-15T03:10:05.866Z,70.12
2022-12-15T03:12:33.337Z,70.47
2022-12-15T03:15:02.253Z,70.29
2022-12-15T03:17:29.693Z,70.85
2022-12-15T03:19:58.445Z,70.86
2022-12-15T03:22:25.898Z,70.52
2022-12-15T03:24:53.328Z,71.14
2022-12-15T03:27:20.745Z,69.93
2022-12-15T03:29:48.141Z,71.27
2022-12-15T03:32:15.626Z,71.04
2022-12-15T03:34:43.063Z,71.05
2022-12-15T03:37:12.118Z,70.39
2022-12-15T03:39:39.626Z,70.87
2022-12-15T03:42:07.183Z,71.04
2022-12-15T03:44:34.646Z,70.94
2022-12-15T03:47:03.762Z,70.58
2022-12-15T03:49:31.439Z,71.35
2022-12-15T03:51:58.924Z,70.72
2022-12-15T03:54:27.680Z,70.85
2022-12-15T03:56:55.085Z,70.58
2022-12-15T03:59:22.531Z,70.46
2022-12-15T04:01:50.121Z,71.00
2022-12-15T04:04:17.775Z,70.59
2022-12-15T04:06:45.268Z,70.73
2022-12-15T04:09:12.707Z,71.02
2022-12-15T04:11:41.449Z,71.33
2022-12-15T04:14:10.062Z,70.37
2022-12-15T04:16:37.584Z,71.21
2022-12-15T04:19:31.009Z,71.23
2022-12-15T04:22:01.927Z,70.82
2022-12-15T04:24:46.731Z,71.11
2022-12-15T04:27:33.518Z,71.12
2022-12-15T04:30:18.609Z,71.13
2022-12-15T04:33:04.008Z,71.04
2022-12-15T04:35:50.458Z,71.16
2022-12-15T04:38:35.349Z,71.05
2022-12-15T04:41:20.800Z,71.22
2022-12-15T04:44:07.500Z,71.83
2022-12-15T04:46:52.366Z,71.79
2022-12-15T04:49:37.384Z,71.89
2022-12-15T04:52:22.846Z,71.64
2022-12-15T04:55:08.036Z,71.70
2022-12-15T04:57:53.976Z,71.89
2022-12-15T05:00:40.585Z,71.37
2022-12-15T05:03:26.566Z,71.58
2022-12-15T05:06:11.924Z,71.52
2022-12-15T05:08:57.011Z,71.79
2022-12-15T05:11:41.999Z,71.41
2022-12-15T05:14:26.922Z,71.53
2022-12-15T05:17:13.685Z,71.61
2022-12-15T05:20:00.225Z,71.95
2022-12-15T05:22:45.246Z,71.82
2022-12-15T05:25:30.048Z,71.51
2022-12-15T05:28:14.909Z,71.71
2022-12-15T05:31:00.260Z,71.75
2022-12-15T05:33:29.382Z,71.41
2022-12-15T05:35:58.066Z,71.96
2022-12-15T05:38:25.563Z,71.76
2022-12-15T05:40:53.023Z,71.83
2022-12-15T05:43:24.777Z,71.84
2022-12-15T05:45:53.919Z,71.81
2022-12-15T05:48:22.905Z,71.91
2022-12-15T05:50:51.698Z,71.88
2022-12-15T05:53:19.121Z,72.57
2022-12-15T05:55:46.533Z,71.77
2022-12-15T05:58:13.953Z,71.34
2022-12-15T06:00:41.369Z,72.05
2022-12-15T06:03:08.946Z,72.13
2022-12-15T06:05:36.431Z,72.32
2022-12-15T06:08:05.597Z,73.25
2022-12-15T06:10:33.052Z,73.20
2022-12-15T06:13:00.436Z,73.60
2022-12-15T06:15:28.417Z,73.35
2022-12-15T06:17:55.881Z,72.94
2022-12-15T06:20:23.348Z,72.65
2022-12-15T06:22:50.847Z,72.72
2022-12-15T06:25:19.593Z,72.83
2022-12-15T06:27:47.053Z,72.68
2022-12-15T06:30:16.122Z,73.30
2022-12-15T06:32:43.531Z,73.18
2022-12-15T06:35:10.927Z,73.18
2022-12-15T06:37:38.366Z,72.72
2022-12-15T06:40:06.911Z,73.14
2022-12-15T06:42:35.855Z,73.17
2022-12-15T06:45:03.765Z,73.10
2022-12-15T06:47:31.184Z,73.39
2022-12-15T06:49:58.623Z,73.47
2022-12-15T06:52:26.079Z,72.98
2022-12-15T06:54:54.109Z,73.44
2022-12-15T06:57:21.489Z,73.79
2022-12-15T06:59:50.344Z,73.55
2022-12-15T07:02:22.285Z,73.62
2022-12-15T07:04:52.846Z,73.50
2022-12-15T07:07:20.654Z,74.65
2022-12-15T07:09:49.811Z,74.60
2022-12-15T07:12:18.067Z,73.60
2022-12-15T07:14:53.048Z,74.07
2022-12-15T07:17:22.246Z,73.97
2022-12-15T07:19:50.228Z,74.03
2022-12-15T07:22:18.586Z,73.64
2022-12-15T07:24:46.049Z,73.92
2022-12-15T07:27:13.629Z,74.00
2022-12-15T07:29:42.301Z,73.40
2022-12-15T07:32:09.921Z,73.58
2022-12-15T07:34:38.817Z,73.48
2022-12-15T07:37:06.344Z,73.57
2022-12-15T07:39:33.998Z,73.59
2022-12-15T07:42:01.960Z,73.25
2022-12-15T07:44:29.942Z,73.29
2022-12-15T07:46:57.506Z,73.66
2022-12-15T07:49:25.295Z,73.14
2022-12-15T07:51:58.520Z,73.39
2022-12-15T07:54:26.110Z,73.30
2022-12-15T07:56:53.594Z,73.39
2022-12-15T07:59:21.046Z,73.22
2022-12-15T08:01:50.171Z,73.57
2022-12-15T08:04:18.527Z,73.05
2022-12-15T08:06:48.457Z,72.98
2022-12-15T08:09:17.447Z,72.51
2022-12-15T08:11:44.939Z,72.96
2022-12-15T08:14:17.215Z,72.76
2022-12-15T08:16:46.389Z,72.96
2022-12-15T08:19:16.114Z,73.06
2022-12-15T08:21:46.728Z,72.62
2022-12-15T08:24:14.980Z,72.72
2022-12-15T08:26:45.080Z,73.32
2022-12-15T08:29:50.821Z,72.58
2022-12-15T08:32:06.500Z,72.63
2022-12-15T08:34:34.608Z,72.60
2022-12-15T08:37:02.638Z,72.68
2022-12-15T08:39:31.520Z,72.34
2022-12-15T08:42:00.639Z,72.49
2022-12-15T08:44:28.220Z,72.58
2022-12-15T08:46:56.379Z,72.28
2022-12-15T08:49:24.140Z,72.51
2022-12-15T08:51:52.421Z,72.06
2022-12-15T08:54:21.850Z,72.93
2022-12-15T08:56:50.089Z,72.93
2022-12-15T08:59:20.259Z,72.78
2022-12-15T09:01:48.244Z,72.54
2022-12-15T09:04:19.393Z,72.19
2022-12-15T09:06:50.354Z,72.59
2022-12-15T09:09:20.493Z,72.67
2022-12-15T09:11:49.306Z,72.70
2022-12-15T09:14:17.263Z,72.13
2022-12-15T09:16:50.650Z,72.79
2022-12-15T09:19:19.414Z,72.86
2022-12-15T09:21:48.814Z,72.94
2022-12-15T09:24:28.914Z,73.26
2022-12-15T09:27:04.686Z,72.65
2022-12-15T09:29:32.942Z,72.86
2022-12-15T09:32:04.072Z,73.47
2022-12-15T09:34:37.212Z,73.28
2022-12-15T09:37:10.572Z,73.01
2022-12-15T09:39:38.930Z,72.88
2022-12-15T09:42:07.034Z,73.15
2022-12-15T09:44:35.978Z,73.15
2022-12-15T09:47:17.363Z,73.37
2022-12-15T09:49:53.742Z,73.48
2022-12-15T09:52:24.699Z,73.05
2022-12-15T09:54:52.676Z,73.49
2022-12-15T09:57:32.097Z,72.97
2022-12-15T10:00:16.813Z,72.98
2022-12-15T10:03:18.595Z,72.20
2022-12-15T10:06:15.382Z,73.06
2022-12-15T10:08:50.523Z,71.89
2022-12-15T10:11:25.521Z,71.81
2022-12-15T10:13:59.664Z,70.77
2022-12-15T10:16:34.871Z,72.32
2022-12-15T10:19:12.101Z,71.81
2022-12-15T10:21:42.826Z,72.29
2022-12-15T10:24:37.517Z,72.69
2022-12-15T10:27:19.709Z,70.07
2022-12-15T10:29:52.555Z,71.75
2022-12-15T10:32:25.367Z,72.73
2022-12-15T10:34:53.846Z,73.74
2022-12-15T10:37:25.496Z,72.19
2022-12-15T10:39:53.982Z,73.60
2022-12-15T10:42:25.211Z,73.85
2022-12-15T10:44:55.222Z,71.65
2022-12-15T10:47:37.837Z,70.90
2022-12-15T10:50:24.199Z,70.07
2022-12-15T10:52:54.020Z,68.94
2022-12-15T10:55:56.903Z,67.09
2022-12-15T10:58:36.010Z,68.98
2022-12-15T11:01:20.409Z,68.82
2022-12-15T11:04:05.882Z,69.98
2022-12-15T11:07:01.433Z,68.11
2022-12-15T11:09:40.131Z,68.37
2022-12-15T11:12:36.440Z,68.41
2022-12-15T11:15:25.875Z,70.26
2022-12-15T11:18:01.749Z,66.32
2022-12-15T11:20:35.541Z,66.74
2022-12-15T11:23:12.256Z,65.99
2022-12-15T11:25:46.037Z,68.26
2022-12-15T11:28:19.329Z,68.00
2022-12-15T11:30:51.988Z,67.09
2022-12-15T11:33:19.770Z,67.46
2022-12-15T11:35:58.091Z,67.54
2022-12-15T11:38:33.700Z,67.86
2022-12-15T11:41:14.600Z,61.80
2022-12-15T11:44:06.253Z,65.39
2022-12-15T11:46:42.173Z,63.04
2022-12-15T11:49:29.270Z,66.11
2022-12-15T11:52:06.111Z,65.16
2022-12-15T11:54:41.295Z,64.76
2022-12-15T11:57:31.059Z,64.57
2022-12-15T12:00:06.829Z,63.97
2022-12-15T12:03:13.285Z,63.73
2022-12-15T12:06:06.961Z,63.58
2022-12-15T12:08:47.064Z,63.36
2022-12-15T12:11:24.588Z,63.37
2022-12-15T12:14:11.774Z,63.33
2022-12-15T12:16:45.407Z,62.83
2022-12-15T12:19:17.328Z,62.71
2022-12-15T12:21:51.074Z,62.47
2022-12-15T12:24:24.569Z,63.07
2022-12-15T12:26:58.262Z,62.80
2022-12-15T12:29:34.480Z,62.74
2022-12-15T12:32:08.987Z,62.78
2022-12-15T12:34:52.698Z,62.57
2022-12-15T12:37:44.695Z,62.89
2022-12-15T12:40:21.782Z,62.76
2022-12-15T12:42:55.460Z,62.73
2022-12-15T12:45:28.722Z,62.14
2022-12-15T12:48:02.411Z,62.28
2022-12-15T12:50:33.170Z,62.41
2022-12-15T12:53:03.365Z,62.46
2022-12-15T12:55:40.164Z,62.50
2022-12-15T12:58:41.622Z,62.23
2022-12-15T13:01:28.711Z,61.89
2022-12-15T13:04:08.742Z,62.48
2022-12-15T13:07:02.314Z,63.29
2022-12-15T13:09:39.877Z,63.03
2022-12-15T13:12:50.711Z,63.34
2022-12-15T13:15:34.793Z,62.31
2022-12-15T13:18:08.657Z,62.20
2022-12-15T13:20:38.563Z,61.85
2022-12-15T13:23:38.288Z,61.18
2022-12-15T13:26:19.757Z,61.62
2022-12-15T13:28:52.952Z,62.03
2022-12-15T13:31:49.082Z,61.46
2022-12-15T13:34:25.115Z,62.91
2022-12-15T13:36:55.947Z,62.23
2022-12-15T13:39:51.919Z,61.52
2022-12-15T13:42:37.264Z,61.50
2022-12-15T13:45:34.310Z,61.28
2022-12-15T13:48:09.061Z,61.97
2022-12-15T13:50:45.054Z,61.85
2022-12-15T13:53:22.510Z,61.99
2022-12-15T13:56:08.133Z,62.24
2022-12-15T13:58:44.332Z,62.16
2022-12-15T14:01:27.251Z,62.48
2022-12-15T14:04:05.515Z,62.65
2022-12-15T14:06:39.497Z,63.32
2022-12-15T14:09:13.796Z,63.45
2022-12-15T14:11:53.351Z,63.12
2022-12-15T14:14:25.678Z,63.44
2022-12-15T14:16:57.158Z,63.23
2022-12-15T14:19:26.489Z,63.65
2022-12-15T14:21:57.379Z,63.70
2022-12-15T14:24:39.997Z,63.95
2022-12-15T14:27:08.507Z,63.38
2022-12-15T14:29:36.535Z,63.74
2022-12-15T14:32:05.090Z,63.67
2022-12-15T14:34:37.117Z,63.64
2022-12-15T14:37:09.692Z,63.53
2022-12-15T14:39:43.165Z,63.85
2022-12-15T14:42:17.029Z,63.82
2022-12-15T14:44:49.948Z,63.83
2022-12-15T14:47:24.150Z,64.04
2022-12-15T14:49:52.650Z,64.16
2022-12-15T14:52:29.730Z,64.08
2022-12-15T14:54:59.450Z,64.04
2022-12-15T14:57:30.188Z,64.45
2022-12-15T14:59:58.013Z,64.49
2022-12-15T15:02:28.444Z,63.87
2022-12-15T15:05:03.375Z,64.20
2022-12-15T15:07:34.463Z,64.49
2022-12-15T15:10:06.802Z,64.23
2022-12-15T15:12:44.713Z,64.57
2022-12-15T15:15:18.097Z,64.51
2022-12-15T15:17:50.939Z,64.28
2022-12-15T15:20:21.610Z,64.79
2022-12-15T15:23:05.028Z,64.91
2022-12-15T15:25:40.739Z,64.42
2022-12-15T15:28:21.298Z,64.91
2022-12-15T15:30:51.036Z,64.60
2022-12-15T15:33:25.220Z,64.95
2022-12-15T15:35:55.940Z,65.29
2022-12-15T15:38:27.623Z,64.87
2022-12-15T15:40:57.083Z,65.16
2022-12-15T15:43:26.219Z,64.97
2022-12-15T15:45:58.586Z,65.59
2022-12-15T15:48:29.611Z,65.20
2022-12-15T15:50:57.652Z,65.20
2022-12-15T15:53:27.996Z,64.93
2022-12-15T15:55:56.401Z,65.06
2022-12-15T15:58:23.812Z,65.27
2022-12-15T16:00:51.230Z,65.12
2022-12-15T16:03:18.908Z,65.42
2022-12-15T16:05:46.615Z,65.40
2022-12-15T16:08:16.267Z,65.56
2022-12-15T16:10:48.063Z,66.09
2022-12-15T16:13:20.860Z,65.90
2022-12-15T16:15:53.381Z,67.83
2022-12-15T16:18:21.249Z,66.97
2022-12-15T16:20:52.088Z,67.30
2022-12-15T16:23:22.101Z,68.85
2022-12-15T16:25:53.532Z,68.05
2022-12-15T16:28:22.939Z,68.43
2022-12-15T16:30:51.331Z,68.97
2022-12-15T16:33:19.529Z,69.93
2022-12-15T16:35:48.371Z,68.88
2022-12-15T16:38:19.434Z,68.55
2022-12-15T16:40:46.940Z,67.93
2022-12-15T16:43:18.114Z,68.13
2022-12-15T16:45:47.242Z,68.53
2022-12-15T16:48:15.334Z,68.27
2022-12-15T16:50:45.527Z,67.77
2022-12-15T16:53:17.428Z,68.20
2022-12-15T16:55:45.641Z,68.11
2022-12-15T16:58:17.263Z,68.13
2022-12-15T17:00:45.853Z,68.41
2022-12-15T17:03:15.084Z,68.77
2022-12-15T17:05:44.788Z,69.47
2022-12-15T17:08:18.348Z,68.80
2022-12-15T17:10:45.994Z,69.14
2022-12-15T17:13:21.298Z,69.46
2022-12-15T17:15:48.804Z,69.55
2022-12-15T17:18:16.193Z,69.23
2022-12-15T17:20:44.292Z,69.70
2022-12-15T17:23:16.519Z,69.92
2022-12-15T17:26:18.535Z,69.68
2022-12-15T17:28:37.475Z,69.83
2022-12-15T17:31:05.191Z,70.97
2022-12-15T17:33:35.720Z,70.24
2022-12-15T17:36:12.323Z,70.48
2022-12-15T17:38:41.078Z,70.54
2022-12-15T17:41:23.628Z,70.57
2022-12-15T17:44:24.071Z,70.56
2022-12-15T17:46:45.417Z,71.06
2022-12-15T17:49:13.248Z,71.05
2022-12-15T17:51:40.834Z,71.02
2022-12-15T17:54:12.567Z,71.09
2022-12-15T17:56:40.303Z,71.17
2022-12-15T17:59:14.399Z,70.70
2022-12-15T18:01:42.866Z,71.30
2022-12-15T18:04:10.568Z,72.08
2022-12-15T18:06:39.318Z,70.63
2022-12-15T18:09:13.278Z,70.62
2022-12-15T18:11:40.770Z,71.08
2022-12-15T18:14:13.940Z,70.25
2022-12-15T18:16:41.576Z,70.76
2022-12-15T18:19:09.220Z,70.61
2022-12-15T18:21:37.146Z,70.47
2022-12-15T18:24:04.901Z,70.55
2022-12-15T18:26:37.810Z,70.44
2022-12-15T18:29:14.155Z,71.29
2022-12-15T18:31:42.747Z,71.37
2022-12-15T18:34:12.781Z,70.39
2022-12-15T18:36:40.772Z,70.49
2022-12-15T18:39:17.784Z,71.44
2022-12-15T18:41:45.443Z,71.59
2022-12-15T18:44:22.546Z,71.12
2022-12-15T18:46:51.002Z,70.71
2022-12-15T18:49:19.798Z,71.13
2022-12-15T18:51:47.920Z,71.83
2022-12-15T18:54:17.749Z,70.94
2022-12-15T18:56:45.336Z,71.61
2022-12-15T18:59:15.796Z,71.06
2022-12-15T19:01:46.493Z,71.10
2022-12-15T19:04:14.020Z,70.83
2022-12-15T19:06:41.845Z,71.77
2022-12-15T19:09:15.543Z,71.65
2022-12-15T19:12:04.599Z,71.21
2022-12-15T19:14:44.126Z,71.21
2022-12-15T19:17:32.718Z,71.39
2022-12-15T19:20:18.638Z,70.97
2022-12-15T19:22:48.448Z,71.15
2022-12-15T19:25:25.120Z,72.61
2022-12-15T19:27:58.307Z,71.94
2022-12-15T19:30:27.545Z,71.48
2022-12-15T19:32:56.667Z,71.90
2022-12-15T19:35:25.054Z,71.65
2022-12-15T19:37:55.094Z,71.98
2022-12-15T19:40:27.425Z,71.72
2022-12-15T19:42:55.708Z,71.39
2022-12-15T19:45:25.079Z,71.60
2022-12-15T19:47:52.581Z,72.31
2022-12-15T19:50:23.342Z,71.61
2022-12-15T19:52:53.294Z,71.56
2022-12-15T19:55:26.562Z,71.68
2022-12-15T19:57:54.086Z,72.39
2022-12-15T20:00:24.748Z,71.60
2022-12-15T20:02:54.592Z,71.52
2022-12-15T20:05:25.453Z,71.13
2022-12-15T20:07:54.643Z,71.57
2022-12-15T20:10:31.312Z,71.40
2022-12-15T20:12:59.794Z,71.61
2022-12-15T20:15:27.415Z,71.44
2022-12-15T20:17:56.716Z,71.05
2022-12-15T20:20:27.732Z,71.42
2022-12-15T20:22:57.616Z,71.21
2022-12-15T20:25:27.627Z,71.45
2022-12-15T20:27:55.391Z,71.33
2022-12-15T20:30:25.681Z,71.67
2022-12-15T20:32:53.936Z,71.41
2022-12-15T20:35:23.236Z,71.39
2022-12-15T20:37:52.562Z,71.34
2022-12-15T20:40:22.468Z,71.50
2022-12-15T20:42:51.320Z,71.34
2022-12-15T20:45:20.659Z,70.81
2022-12-15T20:47:50.084Z,71.11
2022-12-15T20:50:31.506Z,71.25
2022-12-15T20:53:00.600Z,72.08
2022-12-15T20:55:28.466Z,71.81
2022-12-15T20:57:56.483Z,71.54
2022-12-15T21:00:24.059Z,71.69
2022-12-15T21:02:52.059Z,71.66
2022-12-15T21:05:25.680Z,71.67
2022-12-15T21:07:54.004Z,71.93
2022-12-15T21:10:23.019Z,72.00
2022-12-15T21:12:51.650Z,71.31
2022-12-15T21:15:21.278Z,71.75
2022-12-15T21:17:57.969Z,71.03
2022-12-15T21:20:39.626Z,71.35
2022-12-15T21:23:17.156Z,71.52
2022-12-15T21:25:46.001Z,71.36
2022-12-15T21:28:13.856Z,71.60
2022-12-15T21:30:41.517Z,70.92
2022-12-15T21:33:09.143Z,71.29
2022-12-15T21:35:37.430Z,71.08
2022-12-15T21:38:05.550Z,71.39
2022-12-15T21:40:33.189Z,71.01
2022-12-15T21:43:05.073Z,71.44
2022-12-15T21:45:32.533Z,70.99
2022-12-15T21:48:32.128Z,70.79
2022-12-15T21:50:59.751Z,71.37
2022-12-15T21:53:27.342Z,71.25
2022-12-15T21:55:57.252Z,71.42
2022-12-15T21:58:27.373Z,71.07
2022-12-15T22:00:54.861Z,71.02
2022-12-15T22:03:22.640Z,71.34
2022-12-15T22:05:50.182Z,71.59
2022-12-15T22:11:50.357Z,71.10
2022-12-15T22:14:26.255Z,70.99
2022-12-15T22:16:54.321Z,71.44
2022-12-15T22:19:22.421Z,71.43
2022-12-15T22:21:52.028Z,71.43
2022-12-15T22:24:20.026Z,71.16
2022-12-15T22:26:47.796Z,71.78
2022-12-15T22:29:18.353Z,70.90
2022-12-15T22:31:47.314Z,70.79
2022-12-15T22:34:16.886Z,71.44
2022-12-15T22:36:45.226Z,70.98
2022-12-15T22:39:14.793Z,71.65
2022-12-15T22:41:45.040Z,71.10
2022-12-15T22:44:18.035Z,71.28
2022-12-15T22:46:47.614Z,71.40
2022-12-15T22:49:18.431Z,71.52
2022-12-15T22:51:46.301Z,70.86
2022-12-15T22:54:21.372Z,71.13
2022-12-15T22:56:52.511Z,71.04
2022-12-15T22:59:25.206Z,71.33
2022-12-15T23:01:54.215Z,71.01
2022-12-15T23:04:22.454Z,70.99
2022-12-15T23:06:49.932Z,71.29
2022-12-15T23:09:19.652Z,71.13
2022-12-15T23:11:46.326Z,70.94
2022-12-15T23:14:15.571Z,71.27
2022-12-15T23:16:43.259Z,71.18
2022-12-15T23:19:24.022Z,70.95
2022-12-15T23:21:52.305Z,70.72
2022-12-15T23:24:19.846Z,71.01
2022-12-15T23:26:47.404Z,71.59
2022-12-15T23:29:15.168Z,71.00
2022-12-15T23:31:43.125Z,71.74
2022-12-15T23:34:12.344Z,70.77
2022-12-15T23:36:39.810Z,71.29
2022-12-15T23:39:07.274Z,71.38
2022-12-15T23:41:36.078Z,71.26
2022-12-15T23:44:03.713Z,71.38
2022-12-15T23:46:31.253Z,70.48
2022-12-15T23:48:59.177Z,71.08
2022-12-15T23:51:28.027Z,71.26
2022-12-15T23:53:55.495Z,70.46
2022-12-15T23:56:25.147Z,71.02
2022-12-15T23:58:56.106Z,70.66
